WetterOnline ( https://www.wetteronline.de )

Wetter aktuell Oberharz (in 1100m)

Aktuelles Wetter: Braunlage (609m)

6-stündlich | Neueste Meldungen
Ortszeit Temperatur Wetter
So, 18.08. 20:00 15.3° C Regen
So, 18.08. 14:00 17.9° C bedeckt
So, 18.08. 8:00 14.7° C Regen
So, 18.08. 2:00 14.5° C bedeckt
Sa, 17.08. 20:00 16.7° C bedeckt
Sa, 17.08. 14:00 20.0° C bewölkt
Sa, 17.08. 8:00 13.5° C bewölkt
Sa, 17.08. 2:00 11.9° C bedeckt
Ortszeit Temperatur Wetter
So, 18.08. 23:30 14.1° C wolkig
So, 18.08. 23:20 14.1° C wolkig
So, 18.08. 23:10 14.1° C wolkig
So, 18.08. 23:00 14.5° C bewölkt
So, 18.08. 22:50 14.5° C bewölkt
So, 18.08. 22:40 14.7° C bewölkt
So, 18.08. 22:30 14.9° C bewölkt
So, 18.08. 22:00 15.1° C wolkig
Ortszeit Relative Feuchte Sichtweite
So, 18.08. 20:00 97% 3.4 km
So, 18.08. 14:00 86% >70 km
So, 18.08. 8:00 96% 27 km
So, 18.08. 2:00 94% 35 km
Sa, 17.08. 20:00 75% >70 km
Sa, 17.08. 14:00 60% 50 km
Sa, 17.08. 8:00 83% 60 km
Sa, 17.08. 2:00 84% >70 km
Ortszeit Relative Feuchte Sichtweite
So, 18.08. 23:30 91% 30 km
So, 18.08. 23:20 91% -
So, 18.08. 23:10 93% -
So, 18.08. 23:00 91% 30 km
So, 18.08. 22:50 91% -
So, 18.08. 22:40 93% -
So, 18.08. 22:30 93% 29 km
So, 18.08. 22:00 92% 40 km
Ortszeit Niederschlagsmenge Niederschlagsart
So, 18.08. 20:00 15 l/m2 in 12 Std. Regen
So, 18.08. 14:00 1 l/m2 in 6 Std. Regen
So, 18.08. 8:00 1 l/m2 in 12 Std. Regen
So, 18.08. 2:00 0.1 l/m2 in 6 Std. Regen
Sa, 17.08. 20:00 0.1 l/m2 in 12 Std. -
Sa, 17.08. 14:00 0.1 l/m2 in 6 Std. Regen
Sa, 17.08. 8:00 0.8 l/m2 in 12 Std. Regen
Sa, 17.08. 2:00 0.0 l/m2 in 6 Std. -
Ortszeit Niederschlagsmenge Niederschlagsart
So, 18.08. 23:30 0.0 l/m2 in 1 Std. -
So, 18.08. 23:20 keine Meldung -
So, 18.08. 23:10 keine Meldung -
So, 18.08. 23:00 0.0 l/m2 in 1 Std. Regen
So, 18.08. 22:50 keine Meldung -
So, 18.08. 22:40 keine Meldung -
So, 18.08. 22:30 0.0 l/m2 in 1 Std. -
So, 18.08. 22:00 0.1 l/m2 in 1 Std. -
Ortszeit Stärke Spitze Richtung
km/h Bft. km/h Grad Sektor
So, 18.08. 20:00 7 2 76 270° W
So, 18.08. 14:00 17 3 35 200° S
So, 18.08. 8:00 6 1 24 200° S
So, 18.08. 2:00 13 3 31 230° SW
Sa, 17.08. 20:00 13 3 44 220° SW
Sa, 17.08. 14:00 20 4 46 220° SW
Sa, 17.08. 8:00 9 2 19 230° SW
Sa, 17.08. 2:00 4 1 11 240° SW
Ortszeit Stärke Spitze Richtung
km/h Bft. km/h Grad Sektor
So, 18.08. 23:30 9 2 20 280° W
So, 18.08. 23:20 9 2 - 280° W
So, 18.08. 23:10 7 2 - 280° W
So, 18.08. 23:00 9 2 20 260° W
So, 18.08. 22:50 9 2 - 260° W
So, 18.08. 22:40 9 2 - 250° W
So, 18.08. 22:30 11 2 22 260° W
So, 18.08. 22:00 11 2 28 270° W
Ortszeit Untergrenze Bedeckung Gattung
total tief tief mittel hoch
So, 18.08. 20:00 240 m 8/8 8/8 - - -
So, 18.08. 14:00 510 m 8/8 8/8 - - -
So, 18.08. 8:00 120 m 7/8 7/8 - - -
So, 18.08. 2:00 90 m 8/8 8/8 - - -
Sa, 17.08. 20:00 570 m 8/8 8/8 - - -
Sa, 17.08. 14:00 870 m 8/8 7/8 - - -
Sa, 17.08. 8:00 2100 m 8/8 7/8 - - -
Sa, 17.08. 2:00 4500 m 8/8 8/8 - - -
Ortszeit Bedeckungsgrad in Achtel und Wolkenuntergrenze
So, 18.08. 23:30 3(420m) 7(6300m) 7(9000m)
So, 18.08. 23:20 3(420m) 7(6300m) 7(9000m)
So, 18.08. 23:10 2(390m) 6(6300m) 6(7500m)
So, 18.08. 23:00 4(450m) 8(6000m) 8(6600m)
So, 18.08. 22:50 4(450m) 8(6000m) 8(6600m)
So, 18.08. 22:40 6(480m) 8(5700m) 8(6600m)
So, 18.08. 22:30 5(510m) 8(4500m) 8(6000m)
So, 18.08. 22:00 3(540m) 8(4800m) 8(8100m)
Ortszeit Luftdruck NN (hPa) Tendenz (hPa in 3 Std.)
So, 18.08. 20:00 1008 + 1,1
So, 18.08. 14:00 1006 - 0,4
So, 18.08. 8:00 1008 - 0,5
So, 18.08. 2:00 1010 - 0,3
Sa, 17.08. 20:00 1010 - 0,1
Sa, 17.08. 14:00 1009 - 0,6
Sa, 17.08. 8:00 1011 - 1,0
Sa, 17.08. 2:00 1014 - 1,1
Ortszeit Luftdruck NN (hPa) Tendenz (hPa in 3 Std.)
So, 18.08. 23:30 1010 + 1,7
So, 18.08. 23:20 1010 keine Meldung
So, 18.08. 23:10 1010 keine Meldung
So, 18.08. 23:00 1010 + 1,8
So, 18.08. 22:50 1010 keine Meldung
So, 18.08. 22:40 1010 keine Meldung
So, 18.08. 22:30 1009 + 1,0
So, 18.08. 22:00 1009 + 2,0
Ortszeit Schneehöhe (cm)
So, 18.08. 20:00 -
So, 18.08. 14:00 -
So, 18.08. 8:00 -
So, 18.08. 2:00 -
Sa, 17.08. 20:00 -
Sa, 17.08. 14:00 -
Sa, 17.08. 8:00 -
Sa, 17.08. 2:00 -
Ortszeit Schneehöhe (cm)
So, 18.08. 23:30 -
So, 18.08. 23:20 -
So, 18.08. 23:10 -
So, 18.08. 23:00 -
So, 18.08. 22:50 -
So, 18.08. 22:40 -
So, 18.08. 22:30 -
So, 18.08. 22:00 -
Link zu dieser Seite / Seite empfehlen

Das Wetter in ...